createdAt,value
2019-04-01T00:02:27.104Z,2.77
2019-04-01T00:04:55.524Z,2.60
2019-04-01T00:07:23.965Z,2.58
2019-04-01T00:09:52.392Z,3.08
2019-04-01T00:12:20.825Z,2.67
2019-04-01T00:14:49.262Z,2.40
2019-04-01T00:17:17.700Z,2.70
2019-04-01T00:19:46.134Z,2.60
2019-04-01T00:22:14.573Z,2.27
2019-04-01T00:24:43.004Z,2.40
2019-04-01T00:27:11.458Z,3.20
2019-04-01T00:29:39.882Z,2.90
2019-04-01T00:32:08.356Z,2.87
2019-04-01T00:34:36.769Z,2.90
2019-04-01T00:37:05.260Z,2.60
2019-04-01T00:39:33.716Z,2.50
2019-04-01T00:42:06.277Z,2.30
2019-04-01T00:44:34.707Z,2.67
2019-04-01T00:47:03.123Z,3.15
2019-04-01T00:49:31.557Z,2.50
2019-04-01T00:51:59.986Z,2.70
2019-04-01T00:54:28.512Z,2.70
2019-04-01T00:56:56.921Z,2.43
2019-04-01T00:59:25.357Z,2.47
2019-04-01T01:01:53.774Z,2.70
2019-04-01T01:04:22.217Z,3.10
2019-04-01T01:06:50.638Z,3.27
2019-04-01T01:09:19.061Z,2.60
2019-04-01T01:11:47.484Z,2.50
2019-04-01T01:14:15.913Z,2.22
2019-04-01T01:16:44.337Z,2.65
2019-04-01T01:19:12.756Z,2.45
2019-04-01T01:21:41.186Z,3.00
2019-04-01T01:24:09.628Z,2.55
2019-04-01T01:26:38.061Z,2.80
2019-04-01T01:29:06.502Z,2.67
2019-04-01T01:31:34.921Z,3.00
2019-04-01T01:34:03.697Z,2.98
2019-04-01T01:36:32.381Z,2.70
2019-04-01T01:39:00.806Z,2.65
2019-04-01T01:41:29.233Z,2.80
2019-04-01T01:43:57.653Z,2.67
2019-04-01T01:46:26.106Z,2.83
2019-04-01T01:48:54.692Z,2.52
2019-04-01T01:51:23.150Z,3.30
2019-04-01T01:53:51.610Z,2.90
2019-04-01T01:56:20.027Z,2.80
2019-04-01T01:58:48.448Z,3.30
2019-04-01T02:01:16.885Z,2.70
2019-04-01T02:03:45.365Z,3.05
2019-04-01T02:06:13.776Z,3.10
2019-04-01T02:08:42.224Z,2.92
2019-04-01T02:11:10.647Z,3.27
2019-04-01T02:13:39.065Z,2.70
2019-04-01T02:16:07.841Z,2.80
2019-04-01T02:18:36.525Z,3.00
2019-04-01T02:21:05.217Z,3.33
2019-04-01T02:23:33.656Z,2.90
2019-04-01T02:26:02.071Z,3.10
2019-04-01T02:28:30.491Z,2.90
2019-04-01T02:30:59.020Z,2.90
2019-04-01T02:33:27.442Z,2.77
2019-04-01T02:35:55.856Z,3.85
2019-04-01T02:38:24.301Z,3.20
2019-04-01T02:40:52.734Z,3.10
2019-04-01T02:43:21.147Z,2.93
2019-04-01T02:45:49.578Z,2.87
2019-04-01T02:48:17.997Z,3.10
2019-04-01T02:50:46.422Z,3.00
2019-04-01T02:53:14.852Z,3.10
2019-04-01T02:55:43.269Z,3.20
2019-04-01T02:58:11.685Z,3.00
2019-04-01T03:00:40.157Z,2.83
2019-04-01T03:03:08.574Z,2.80
2019-04-01T03:05:37.010Z,3.90
2019-04-01T03:08:05.825Z,3.10
2019-04-01T03:10:34.422Z,3.70
2019-04-01T03:13:02.854Z,3.22
2019-04-01T03:15:31.305Z,3.60
2019-04-01T03:17:59.722Z,3.30
2019-04-01T03:20:28.148Z,3.22
2019-04-01T03:22:56.586Z,3.10
2019-04-01T03:25:25.010Z,3.08
2019-04-01T03:27:53.433Z,3.22
2019-04-01T03:30:21.878Z,3.80
2019-04-01T03:32:50.332Z,3.37
2019-04-01T03:35:18.818Z,4.03
2019-04-01T03:37:47.353Z,3.22
2019-04-01T03:40:15.836Z,4.10
2019-04-01T03:42:44.557Z,3.08
2019-04-01T03:45:13.399Z,3.40
2019-04-01T03:47:41.879Z,3.47
2019-04-01T03:50:10.524Z,3.40
2019-04-01T03:52:39.298Z,3.67
2019-04-01T03:55:07.923Z,3.55
2019-04-01T03:57:36.342Z,3.90
2019-04-01T04:00:06.438Z,3.60
2019-04-01T04:02:34.979Z,3.47
2019-04-01T04:05:04.341Z,3.10
2019-04-01T04:07:32.808Z,3.95
2019-04-01T04:10:01.271Z,3.67
2019-04-01T04:12:29.697Z,4.00
2019-04-01T04:14:58.136Z,4.03
2019-04-01T04:17:26.560Z,3.85
2019-04-01T04:19:54.977Z,3.60
2019-04-01T04:22:23.423Z,3.90
2019-04-01T04:24:52.205Z,3.70
2019-04-01T04:27:20.618Z,3.80
2019-04-01T04:29:49.068Z,4.70
2019-04-01T04:32:17.492Z,4.00
2019-04-01T04:34:45.925Z,4.50
2019-04-01T04:37:14.353Z,4.05
2019-04-01T04:39:42.776Z,4.20
2019-04-01T04:42:11.193Z,4.25
2019-04-01T04:44:39.645Z,4.50
2019-04-01T04:47:08.060Z,5.58
2019-04-01T04:49:36.478Z,5.08
2019-04-01T04:52:04.930Z,4.75
2019-04-01T04:54:33.348Z,4.40
2019-04-01T04:57:01.937Z,4.42
2019-04-01T04:59:30.374Z,4.65
2019-04-01T05:01:58.796Z,5.08
2019-04-01T05:04:27.304Z,4.60
2019-04-01T05:06:55.756Z,4.58
2019-04-01T05:09:24.177Z,4.70
2019-04-01T05:11:52.604Z,4.87
2019-04-01T05:14:21.501Z,4.67
2019-04-01T05:16:49.921Z,4.60
2019-04-01T05:19:18.345Z,5.33
2019-04-01T05:21:47.501Z,4.50
2019-04-01T05:24:16.397Z,5.65
2019-04-01T05:26:45.265Z,5.55
2019-04-01T05:29:15.378Z,5.60
2019-04-01T05:31:46.909Z,4.70
2019-04-01T05:34:17.409Z,5.10
2019-04-01T05:36:46.880Z,4.83
2019-04-01T05:39:15.817Z,4.80
2019-04-01T05:41:44.251Z,8.03
2019-04-01T05:44:13.505Z,5.40
2019-04-01T05:46:42.002Z,5.83
2019-04-01T05:49:10.490Z,5.50
2019-04-01T05:51:39.113Z,4.90
2019-04-01T05:54:08.212Z,5.20
2019-04-01T05:56:36.629Z,4.97
2019-04-01T05:59:05.091Z,7.47
2019-04-01T06:01:37.934Z,4.60
2019-04-01T06:04:06.364Z,4.72
2019-04-01T06:06:34.990Z,5.25
2019-04-01T06:09:05.465Z,5.33
2019-04-01T06:11:33.893Z,4.60
2019-04-01T06:14:02.352Z,5.08
2019-04-01T06:16:30.953Z,5.10
2019-04-01T06:18:59.397Z,6.62
2019-04-01T06:21:28.025Z,4.03
2019-04-01T06:23:56.773Z,4.40
2019-04-01T06:26:25.269Z,4.67
2019-04-01T06:28:53.709Z,4.30
2019-04-01T06:31:22.153Z,4.40
2019-04-01T06:33:50.580Z,3.92
2019-04-01T06:36:19.093Z,3.55
2019-04-01T06:38:47.777Z,4.12
2019-04-01T06:41:16.263Z,3.80
2019-04-01T06:43:44.708Z,4.78
2019-04-01T06:46:13.131Z,3.90
2019-04-01T06:48:41.562Z,4.33
2019-04-01T06:51:10.008Z,4.37
2019-04-01T06:53:38.453Z,4.70
2019-04-01T06:56:06.945Z,4.70
2019-04-01T06:58:35.760Z,4.65
2019-04-01T07:01:04.183Z,4.50
2019-04-01T07:03:32.609Z,5.22
2019-04-01T07:06:01.528Z,4.30
2019-04-01T07:08:29.957Z,4.25
2019-04-01T07:10:58.741Z,3.58
2019-04-01T07:13:27.184Z,3.30
2019-04-01T07:15:55.628Z,3.30
2019-04-01T07:18:24.059Z,3.50
2019-04-01T07:20:52.511Z,3.47
2019-04-01T07:23:20.934Z,4.12
2019-04-01T07:25:49.353Z,3.15
2019-04-01T07:28:18.077Z,6.25
2019-04-01T07:30:46.503Z,3.80
2019-04-01T07:33:14.921Z,3.20
2019-04-01T07:35:46.515Z,4.00
2019-04-01T07:38:14.147Z,4.57
2019-04-01T07:40:42.569Z,3.40
2019-04-01T07:43:14.723Z,3.20
2019-04-01T07:45:41.453Z,3.27
2019-04-01T07:48:12.556Z,3.30
2019-04-01T07:50:40.441Z,3.67
2019-04-01T07:53:08.946Z,4.13
2019-04-01T07:55:37.737Z,3.60
2019-04-01T07:58:06.185Z,3.15
2019-04-01T08:00:34.602Z,3.50
2019-04-01T08:03:03.030Z,3.10
2019-04-01T08:05:31.479Z,2.90
2019-04-01T08:07:59.908Z,3.33
2019-04-01T08:10:28.333Z,3.00
2019-04-01T08:12:56.801Z,3.30
2019-04-01T08:15:25.294Z,3.08
2019-04-01T08:17:53.710Z,2.50
2019-04-01T08:20:22.526Z,3.47
2019-04-01T08:22:50.961Z,3.00
2019-04-01T08:25:19.377Z,3.25
2019-04-01T08:27:47.844Z,6.13
2019-04-01T08:30:16.627Z,3.40
2019-04-01T08:32:45.176Z,2.80
2019-04-01T08:35:14.219Z,2.72
2019-04-01T08:37:42.641Z,2.87
2019-04-01T08:40:11.306Z,2.55
2019-04-01T08:42:39.758Z,3.00
2019-04-01T08:45:09.126Z,2.98
2019-04-01T08:47:38.053Z,2.80
2019-04-01T08:50:07.732Z,2.80
2019-04-01T08:52:36.388Z,2.60
2019-04-01T08:55:09.355Z,2.60
2019-04-01T08:57:37.816Z,2.80
2019-04-01T09:00:08.726Z,2.70
2019-04-01T09:02:37.145Z,2.50
2019-04-01T09:05:06.323Z,2.47
2019-04-01T09:07:34.735Z,2.50
2019-04-01T09:10:03.345Z,2.62
2019-04-01T09:12:31.956Z,2.30
2019-04-01T09:15:01.324Z,2.70
2019-04-01T09:17:29.833Z,2.60
2019-04-01T09:19:58.285Z,2.20
2019-04-01T09:22:26.722Z,2.30
2019-04-01T09:24:55.142Z,2.33
2019-04-01T09:27:23.594Z,2.75
2019-04-01T09:29:52.025Z,2.50
2019-04-01T09:32:20.468Z,3.05
2019-04-01T09:34:48.917Z,2.20
2019-04-01T09:37:17.694Z,2.92
2019-04-01T09:39:46.123Z,2.60
2019-04-01T09:42:14.564Z,2.70
2019-04-01T09:44:42.979Z,2.40
2019-04-01T09:47:11.397Z,3.10
2019-04-01T09:49:39.837Z,2.83
2019-04-01T09:52:08.273Z,2.40
2019-04-01T09:54:36.693Z,3.10
2019-04-01T09:57:16.706Z,2.60
2019-04-01T09:59:35.461Z,3.40
2019-04-01T10:02:04.192Z,2.85
2019-04-01T10:04:32.698Z,2.30
2019-04-01T10:07:01.405Z,2.80
2019-04-01T10:09:30.517Z,3.12
2019-04-01T10:11:58.961Z,3.00
2019-04-01T10:14:27.395Z,3.70
2019-04-01T10:16:55.813Z,2.60
2019-04-01T10:19:24.253Z,2.80
2019-04-01T10:21:53.008Z,2.77
2019-04-01T10:24:21.430Z,2.65
2019-04-01T10:26:49.877Z,2.87
2019-04-01T10:29:18.299Z,3.30
2019-04-01T10:31:46.729Z,2.55
2019-04-01T10:34:15.181Z,2.10
2019-04-01T10:36:44.094Z,2.30
2019-04-01T10:39:12.522Z,2.30
2019-04-01T10:41:40.979Z,2.70
2019-04-01T10:44:09.854Z,2.70
2019-04-01T10:46:40.718Z,2.10
2019-04-01T10:49:08.858Z,3.10
2019-04-01T10:51:37.296Z,2.65
2019-04-01T10:54:06.649Z,2.12
2019-04-01T10:56:36.037Z,2.40
2019-04-01T10:59:04.786Z,2.40
2019-04-01T11:01:33.528Z,2.20
2019-04-01T11:04:02.035Z,2.80
2019-04-01T11:06:30.689Z,2.30
2019-04-01T11:08:59.135Z,2.58
2019-04-01T11:11:27.645Z,2.30
2019-04-01T11:13:56.156Z,2.20
2019-04-01T11:16:24.889Z,2.55
2019-04-01T11:18:53.329Z,3.08
2019-04-01T11:21:21.752Z,2.80
2019-04-01T11:23:50.190Z,2.62
2019-04-01T11:26:18.641Z,2.90
2019-04-01T11:28:47.065Z,2.60
2019-04-01T11:31:15.500Z,2.50
2019-04-01T11:33:44.031Z,2.50
2019-04-01T11:36:13.896Z,2.35
2019-04-01T11:38:42.689Z,2.83
2019-04-01T11:41:11.186Z,2.70
2019-04-01T11:43:39.690Z,2.83
2019-04-01T11:46:08.113Z,2.00
2019-04-01T11:48:36.570Z,2.55
2019-04-01T11:51:05.128Z,2.20
2019-04-01T11:53:34.173Z,2.50
2019-04-01T11:56:02.697Z,2.40
2019-04-01T11:58:31.124Z,2.50
2019-04-01T12:00:59.544Z,2.40
2019-04-01T12:03:28.282Z,2.50
2019-04-01T12:05:56.770Z,2.40
2019-04-01T12:08:25.632Z,2.20
2019-04-01T12:10:54.077Z,2.40
2019-04-01T12:13:22.513Z,2.35
2019-04-01T12:15:50.921Z,3.20
2019-04-01T12:18:19.381Z,2.67
2019-04-01T12:20:47.819Z,2.30
2019-04-01T12:23:16.247Z,2.43
2019-04-01T12:25:44.741Z,2.52
2019-04-01T12:28:14.169Z,3.27
2019-04-01T12:30:42.669Z,2.50
2019-04-01T12:33:11.126Z,2.67
2019-04-01T12:35:39.544Z,2.30
2019-04-01T12:38:07.973Z,2.60
2019-04-01T12:40:36.420Z,2.27
2019-04-01T12:43:05.087Z,2.92
2019-04-01T12:45:33.508Z,2.20
2019-04-01T12:48:01.957Z,2.35
2019-04-01T12:50:30.377Z,2.20
2019-04-01T12:52:58.826Z,3.00
2019-04-01T12:55:27.326Z,2.25
2019-04-01T12:57:55.750Z,2.30
2019-04-01T13:00:24.184Z,2.20
2019-04-01T13:02:52.622Z,1.90
2019-04-01T13:05:21.950Z,2.50
2019-04-01T13:07:54.112Z,2.40
2019-04-01T13:10:20.729Z,2.85
2019-04-01T13:12:49.152Z,2.70
2019-04-01T13:15:17.740Z,2.30
2019-04-01T13:17:46.213Z,2.20
2019-04-01T13:20:15.281Z,2.55
2019-04-01T13:22:43.718Z,2.30
2019-04-01T13:25:12.403Z,2.12
2019-04-01T13:27:40.825Z,2.35
2019-04-01T13:30:09.802Z,2.70
2019-04-01T13:32:38.242Z,2.10
2019-04-01T13:35:06.900Z,2.30
2019-04-01T13:37:36.273Z,2.23
2019-04-01T13:40:05.759Z,2.85
2019-04-01T13:42:34.184Z,2.30
2019-04-01T13:45:02.668Z,1.77
2019-04-01T13:47:31.146Z,2.10
2019-04-01T13:49:59.732Z,1.73
2019-04-01T13:52:28.937Z,2.27
2019-04-01T13:54:57.389Z,2.90
2019-04-01T13:57:25.814Z,2.27
2019-04-01T13:59:54.242Z,2.35
2019-04-01T14:02:22.714Z,2.80
2019-04-01T14:04:51.133Z,2.60
2019-04-01T14:07:19.662Z,2.50
2019-04-01T14:09:50.725Z,2.25
2019-04-01T14:12:19.303Z,3.55
2019-04-01T14:14:47.726Z,2.10
2019-04-01T14:17:16.165Z,2.27
2019-04-01T14:19:44.593Z,1.90
2019-04-01T14:22:13.013Z,2.20
2019-04-01T14:24:42.785Z,2.20
2019-04-01T14:27:11.294Z,2.20
2019-04-01T14:29:39.713Z,2.72
2019-04-01T14:32:08.212Z,2.60
2019-04-01T14:34:36.634Z,2.65
2019-04-01T14:37:05.063Z,2.40
2019-04-01T14:39:34.909Z,2.60
2019-04-01T14:42:03.517Z,2.02
2019-04-01T14:44:31.941Z,2.08
2019-04-01T14:47:00.453Z,1.90
2019-04-01T14:49:28.892Z,2.30
2019-04-01T14:51:57.321Z,1.80
2019-04-01T14:54:26.489Z,2.20
2019-04-01T14:56:54.906Z,1.70
2019-04-01T14:59:23.340Z,2.40
2019-04-01T15:01:51.781Z,2.10
2019-04-01T15:04:20.212Z,2.02
2019-04-01T15:06:48.633Z,1.90
2019-04-01T15:09:17.478Z,2.40
2019-04-01T15:11:46.252Z,1.90
2019-04-01T15:14:14.684Z,2.10
2019-04-01T15:16:43.153Z,1.70
2019-04-01T15:19:12.939Z,1.62
2019-04-01T15:21:41.685Z,2.83
2019-04-01T15:24:10.116Z,2.40
2019-04-01T15:26:38.542Z,1.80
2019-04-01T15:29:06.970Z,1.80
2019-04-01T15:31:35.697Z,1.80
2019-04-01T15:34:04.118Z,1.70
2019-04-01T15:36:32.608Z,1.60
2019-04-01T15:39:01.069Z,2.10
2019-04-01T15:41:29.495Z,2.00
2019-04-01T15:43:57.917Z,2.03
2019-04-01T15:46:26.357Z,1.87
2019-04-01T15:48:54.781Z,1.90
2019-04-01T15:51:23.279Z,2.00
2019-04-01T15:53:51.729Z,2.02
2019-04-01T15:56:20.154Z,1.77
2019-04-01T15:58:50.797Z,1.60
2019-04-01T16:01:18.804Z,2.03
2019-04-01T16:03:47.228Z,1.80
2019-04-01T16:06:15.660Z,4.53
2019-04-01T16:08:44.112Z,2.00
2019-04-01T16:11:12.536Z,1.80
2019-04-01T16:13:40.966Z,1.80
2019-04-01T16:16:09.405Z,2.72
2019-04-01T16:18:37.831Z,2.10
2019-04-01T16:21:06.250Z,2.10
2019-04-01T16:23:34.690Z,2.10
2019-04-01T16:26:03.117Z,2.02
2019-04-01T16:28:31.849Z,2.00
2019-04-01T16:31:00.353Z,2.10
2019-04-01T16:33:28.770Z,2.70
2019-04-01T16:35:57.202Z,2.20
2019-04-01T16:38:25.691Z,3.33
2019-04-01T16:40:54.151Z,1.62
2019-04-01T16:43:22.628Z,2.40
2019-04-01T16:45:51.069Z,2.50
2019-04-01T16:48:19.501Z,1.90
2019-04-01T16:50:47.930Z,1.80
2019-04-01T16:53:16.391Z,2.40
2019-04-01T16:55:44.809Z,2.00
2019-04-01T16:58:13.244Z,1.80
2019-04-01T17:00:41.695Z,1.95
2019-04-01T17:03:13.369Z,1.90
2019-04-01T17:05:40.325Z,1.70
2019-04-01T17:08:10.344Z,1.77
2019-04-01T17:10:39.044Z,1.70
2019-04-01T17:13:08.141Z,1.90
2019-04-01T17:15:36.759Z,2.00
2019-04-01T17:18:05.177Z,2.30
2019-04-01T17:20:33.605Z,2.52
2019-04-01T17:23:02.162Z,1.70
2019-04-01T17:25:30.585Z,2.33
2019-04-01T17:27:59.319Z,2.10
2019-04-01T17:30:27.883Z,2.50
2019-04-01T17:32:56.371Z,2.00
2019-04-01T17:35:24.793Z,1.90
2019-04-01T17:37:53.257Z,2.02
2019-04-01T17:40:21.738Z,2.30
2019-04-01T17:42:50.174Z,2.08
2019-04-01T17:45:24.596Z,2.60
2019-04-01T17:47:53.008Z,2.10
2019-04-01T17:50:21.942Z,3.60
2019-04-01T17:52:50.387Z,2.42
2019-04-01T17:55:18.876Z,2.30
2019-04-01T17:57:47.302Z,3.33
2019-04-01T18:00:18.254Z,2.12
2019-04-01T18:02:46.678Z,2.20
2019-04-01T18:05:16.818Z,2.40
2019-04-01T18:07:45.269Z,1.87
2019-04-01T18:10:14.333Z,2.15
2019-04-01T18:12:42.760Z,2.15
2019-04-01T18:15:11.594Z,2.17
2019-04-01T18:17:41.138Z,2.20
2019-04-01T18:20:10.361Z,2.62
2019-04-01T18:22:39.153Z,2.40
2019-04-01T18:25:08.520Z,2.40
2019-04-01T18:27:36.951Z,2.30
2019-04-01T18:30:08.102Z,2.60
2019-04-01T18:32:36.533Z,2.17
2019-04-01T18:35:06.765Z,2.45
2019-04-01T18:37:35.219Z,2.70
2019-04-01T18:40:04.583Z,2.70
2019-04-01T18:42:32.999Z,2.90
2019-04-01T18:45:01.440Z,2.72
2019-04-01T18:47:29.864Z,2.60
2019-04-01T18:49:58.279Z,2.80
2019-04-01T18:52:27.064Z,2.40
2019-04-01T18:54:55.485Z,2.77
2019-04-01T18:57:23.909Z,2.30
2019-04-01T18:59:52.401Z,2.58
2019-04-01T19:02:20.876Z,2.25
2019-04-01T19:04:49.300Z,2.58
2019-04-01T19:07:17.749Z,2.80
2019-04-01T19:09:46.164Z,3.40
2019-04-01T19:12:14.585Z,3.08
2019-04-01T19:14:43.029Z,2.45
2019-04-01T19:17:11.448Z,3.10
2019-04-01T19:19:40.301Z,2.72
2019-04-01T19:22:08.993Z,2.80
2019-04-01T19:24:37.714Z,2.70
2019-04-01T19:27:06.134Z,2.40
2019-04-01T19:29:34.573Z,2.50
2019-04-01T19:32:02.998Z,2.40
2019-04-01T19:34:31.433Z,2.80
2019-04-01T19:36:59.872Z,2.55
2019-04-01T19:39:30.222Z,2.20
2019-04-01T19:41:58.454Z,2.60
2019-04-01T19:44:26.919Z,2.47
2019-04-01T19:46:55.345Z,2.70
2019-04-01T19:49:23.780Z,2.50
2019-04-01T19:51:52.239Z,2.75
2019-04-01T19:54:33.513Z,2.60
2019-04-01T19:56:59.110Z,2.80
2019-04-01T19:59:27.967Z,2.55
2019-04-01T20:01:58.105Z,2.95
2019-04-01T20:04:26.718Z,2.47
2019-04-01T20:06:55.155Z,2.80
2019-04-01T20:09:23.642Z,3.00
2019-04-01T20:11:52.144Z,2.80
2019-04-01T20:14:20.615Z,2.55
2019-04-01T20:16:49.065Z,2.50
2019-04-01T20:19:17.570Z,2.50
2019-04-01T20:21:47.439Z,2.30
2019-04-01T20:24:16.565Z,2.37
2019-04-01T20:26:45.032Z,2.60
2019-04-01T20:29:13.516Z,2.50
2019-04-01T20:31:41.957Z,2.52
2019-04-01T20:34:19.554Z,2.60
2019-04-01T20:36:40.636Z,2.25
2019-04-01T20:39:09.146Z,2.50
2019-04-01T20:41:37.660Z,2.67
2019-04-01T20:44:06.201Z,3.20
2019-04-01T20:46:34.933Z,2.40
2019-04-01T20:49:03.579Z,2.70
2019-04-01T20:51:31.997Z,3.60
2019-04-01T20:54:00.422Z,2.50
2019-04-01T20:56:28.871Z,2.98
2019-04-01T20:58:57.286Z,2.50
2019-04-01T21:01:25.778Z,3.98
2019-04-01T21:03:54.245Z,3.87
2019-04-01T21:06:22.682Z,3.00
2019-04-01T21:08:51.098Z,2.87
2019-04-01T21:11:19.565Z,3.20
2019-04-01T21:13:47.992Z,3.50
2019-04-01T21:16:16.418Z,3.00
2019-04-01T21:18:44.877Z,2.60
2019-04-01T21:21:13.305Z,2.98
2019-04-01T21:23:41.726Z,2.77
2019-04-01T21:26:10.195Z,2.17
2019-04-01T21:28:38.633Z,2.43
2019-04-01T21:31:07.454Z,2.80
2019-04-01T21:33:36.399Z,3.00
2019-04-01T21:36:06.802Z,2.52
2019-04-01T21:38:35.466Z,2.58
2019-04-01T21:41:03.908Z,2.50
2019-04-01T21:43:32.330Z,2.20
2019-04-01T21:46:00.765Z,2.10
2019-04-01T21:48:29.229Z,2.40
2019-04-01T21:50:57.673Z,2.30
2019-04-01T21:53:26.155Z,2.30
2019-04-01T21:55:54.637Z,2.60
2019-04-01T21:58:23.170Z,2.80
2019-04-01T22:00:53.413Z,2.90
2019-04-01T22:03:21.943Z,2.83
2019-04-01T22:05:50.366Z,2.62
2019-04-01T22:08:18.796Z,2.20
2019-04-01T22:10:47.581Z,2.55
2019-04-01T22:13:15.999Z,2.80
2019-04-01T22:15:44.731Z,2.67
2019-04-01T22:18:13.301Z,2.90
2019-04-01T22:20:43.126Z,2.50
2019-04-01T22:23:11.553Z,2.40
2019-04-01T22:25:39.998Z,3.37
2019-04-01T22:28:08.416Z,2.90
2019-04-01T22:30:36.844Z,2.30
2019-04-01T22:33:05.305Z,2.25
2019-04-01T22:35:38.831Z,2.30
2019-04-01T22:38:06.220Z,2.55
2019-04-01T22:40:34.504Z,2.80
2019-04-01T22:43:02.945Z,2.20
2019-04-01T22:45:31.726Z,2.40
2019-04-01T22:48:00.721Z,2.10
2019-04-01T22:50:29.166Z,2.83
2019-04-01T22:52:57.620Z,2.90
2019-04-01T22:55:26.064Z,2.40
2019-04-01T22:57:54.492Z,2.50
2019-04-01T23:00:22.921Z,2.42
2019-04-01T23:02:51.783Z,2.40
2019-04-01T23:05:20.201Z,2.80
2019-04-01T23:07:48.625Z,2.50
2019-04-01T23:10:17.080Z,2.60
2019-04-01T23:12:45.501Z,2.80
2019-04-01T23:15:15.844Z,2.60
2019-04-01T23:17:45.029Z,2.35
2019-04-01T23:20:13.520Z,3.05
2019-04-01T23:22:41.933Z,2.70
2019-04-01T23:25:10.372Z,2.70
2019-04-01T23:27:39.697Z,2.80
2019-04-01T23:30:10.639Z,2.80
2019-04-01T23:32:41.632Z,2.95
2019-04-01T23:35:09.309Z,2.60
2019-04-01T23:37:38.465Z,2.98
2019-04-01T23:40:07.579Z,2.70
2019-04-01T23:42:37.933Z,2.80
2019-04-01T23:45:08.082Z,3.60
2019-04-01T23:47:36.532Z,2.67
2019-04-01T23:50:09.370Z,3.30
2019-04-01T23:52:38.836Z,2.62
2019-04-01T23:55:08.413Z,2.80
2019-04-01T23:57:36.936Z,2.98
